createdAt,value
2022-09-04T00:00:34.563Z,94.93
2022-09-04T00:03:47.797Z,96.37
2022-09-04T00:07:07.062Z,98.61
2022-09-04T00:10:20.464Z,97.66
2022-09-04T00:13:27.413Z,98.57
2022-09-04T00:16:42.977Z,98.62
2022-09-04T00:19:53.891Z,100.00
2022-09-04T00:23:03.946Z,100.00
2022-09-04T00:26:15.928Z,100.00
2022-09-04T00:29:36.348Z,100.00
2022-09-04T00:32:46.874Z,100.00
2022-09-04T00:35:56.349Z,100.00
2022-09-04T00:39:08.819Z,100.00
2022-09-04T00:42:36.134Z,100.00
2022-09-04T00:45:59.214Z,100.00
2022-09-04T00:49:33.000Z,100.00
2022-09-04T00:53:02.484Z,100.00
2022-09-04T00:56:33.658Z,100.00
2022-09-04T00:59:58.717Z,100.00
2022-09-04T01:03:22.131Z,100.00
2022-09-04T01:06:37.071Z,100.00
2022-09-04T01:09:58.411Z,100.00
2022-09-04T01:14:00.706Z,100.00
2022-09-04T01:17:16.005Z,100.00
2022-09-04T01:20:31.508Z,100.00
2022-09-04T01:24:01.040Z,100.00
2022-09-04T01:27:10.262Z,100.00
2022-09-04T01:30:17.598Z,100.00
2022-09-04T01:33:30.332Z,100.00
2022-09-04T01:36:42.722Z,100.00
2022-09-04T01:40:17.514Z,100.00
2022-09-04T01:43:24.130Z,100.00
2022-09-04T01:46:43.045Z,100.00
2022-09-04T01:49:52.143Z,100.00
2022-09-04T01:53:05.797Z,100.00
2022-09-04T01:56:16.321Z,100.00
2022-09-04T01:59:29.114Z,100.00
2022-09-04T02:02:47.836Z,100.00
2022-09-04T02:06:06.758Z,100.00
2022-09-04T02:09:27.315Z,100.00
2022-09-04T02:12:38.010Z,100.00
2022-09-04T02:15:50.276Z,100.00
2022-09-04T02:19:04.590Z,100.00
2022-09-04T02:22:20.763Z,100.00
2022-09-04T02:25:32.215Z,100.00
2022-09-04T02:28:51.232Z,100.00
2022-09-04T02:32:05.147Z,100.00
2022-09-04T02:35:23.109Z,100.00
2022-09-04T02:38:34.189Z,100.00
2022-09-04T02:41:50.902Z,100.00
2022-09-04T02:45:10.747Z,100.00
2022-09-04T02:48:25.513Z,100.00
2022-09-04T02:51:54.173Z,100.00
2022-09-04T02:55:14.058Z,100.00
2022-09-04T02:58:31.283Z,100.00
2022-09-04T03:01:49.184Z,100.00
2022-09-04T03:05:03.037Z,100.00
2022-09-04T03:08:14.352Z,100.00
2022-09-04T03:11:23.450Z,100.00
2022-09-04T03:14:36.229Z,100.00
2022-09-04T03:17:48.973Z,100.00
2022-09-04T03:20:59.381Z,100.00
2022-09-04T03:24:09.281Z,100.00
2022-09-04T03:27:16.398Z,100.00
2022-09-04T03:30:20.090Z,100.00
2022-09-04T03:33:31.506Z,100.00
2022-09-04T03:36:44.077Z,100.00
2022-09-04T03:40:04.403Z,100.00
2022-09-04T03:43:45.082Z,100.00
2022-09-04T03:47:03.003Z,100.00
2022-09-04T03:50:18.991Z,100.00
2022-09-04T03:53:33.869Z,100.00
2022-09-04T03:57:00.102Z,100.00
2022-09-04T04:00:11.900Z,100.00
2022-09-04T04:03:48.055Z,100.00
2022-09-04T04:07:07.830Z,100.00
2022-09-04T04:10:31.083Z,100.00
2022-09-04T04:14:06.828Z,100.00
2022-09-04T04:17:35.992Z,100.00
2022-09-04T04:20:52.424Z,100.00
2022-09-04T04:24:27.095Z,100.00
2022-09-04T04:27:49.176Z,100.00
2022-09-04T04:30:54.542Z,100.00
2022-09-04T04:34:06.794Z,100.00
2022-09-04T04:37:18.622Z,100.00
2022-09-04T04:40:36.057Z,100.00
2022-09-04T04:43:55.776Z,100.00
2022-09-04T04:47:15.959Z,100.00
2022-09-04T04:50:27.246Z,100.00
2022-09-04T04:53:36.814Z,100.00
2022-09-04T04:56:47.803Z,100.00
2022-09-04T05:00:08.347Z,100.00
2022-09-04T05:03:22.104Z,100.00
2022-09-04T05:06:36.552Z,100.00
2022-09-04T05:09:49.991Z,100.00
2022-09-04T05:13:03.585Z,100.00
2022-09-04T05:16:19.346Z,100.00
2022-09-04T05:19:30.944Z,100.00
2022-09-04T05:22:40.598Z,100.00
2022-09-04T05:25:51.904Z,100.00
2022-09-04T05:29:02.921Z,100.00
2022-09-04T05:32:20.842Z,100.00
2022-09-04T05:35:35.566Z,100.00
2022-09-04T05:38:55.152Z,100.00
2022-09-04T05:42:16.458Z,100.00
2022-09-04T05:45:26.256Z,100.00
2022-09-04T05:48:39.964Z,100.00
2022-09-04T05:52:23.333Z,100.00
2022-09-04T05:55:45.383Z,100.00
2022-09-04T05:59:13.036Z,100.00
2022-09-04T06:02:47.181Z,100.00
2022-09-04T06:06:15.095Z,100.00
2022-09-04T06:09:34.991Z,100.00
2022-09-04T06:13:03.006Z,100.00
2022-09-04T06:16:26.975Z,100.00
2022-09-04T06:19:48.919Z,100.00
2022-09-04T06:23:08.255Z,100.00
2022-09-04T06:26:39.961Z,100.00
2022-09-04T06:30:03.726Z,100.00
2022-09-04T06:33:36.896Z,100.00
2022-09-04T06:36:57.503Z,100.00
2022-09-04T06:40:21.641Z,100.00
2022-09-04T06:43:37.877Z,100.00
2022-09-04T06:46:52.146Z,100.00
2022-09-04T06:50:17.670Z,100.00
2022-09-04T06:53:42.423Z,100.00
2022-09-04T06:57:06.847Z,100.00
2022-09-04T07:00:12.575Z,100.00
2022-09-04T07:03:31.839Z,100.00
2022-09-04T07:06:50.782Z,100.00
2022-09-04T07:10:01.707Z,100.00
2022-09-04T07:13:37.945Z,100.00
2022-09-04T07:16:47.813Z,100.00
2022-09-04T07:20:12.789Z,100.00
2022-09-04T07:23:30.836Z,100.00
2022-09-04T07:26:42.559Z,100.00
2022-09-04T07:29:54.159Z,100.00
2022-09-04T07:33:00.938Z,100.00
2022-09-04T07:36:10.058Z,100.00
2022-09-04T07:39:22.197Z,100.00
2022-09-04T07:42:32.763Z,100.00
2022-09-04T07:45:39.922Z,100.00
2022-09-04T07:48:48.173Z,100.00
2022-09-04T07:51:58.605Z,100.00
2022-09-04T07:55:24.947Z,100.00
2022-09-04T07:58:58.494Z,100.00
2022-09-04T08:02:22.147Z,100.00
2022-09-04T08:05:28.999Z,100.00
2022-09-04T08:09:10.822Z,100.00
2022-09-04T08:12:38.402Z,100.00
2022-09-04T08:15:46.445Z,100.00
2022-09-04T08:19:03.408Z,100.00
2022-09-04T08:22:07.851Z,100.00
2022-09-04T08:25:20.746Z,100.00
2022-09-04T08:28:46.085Z,100.00
2022-09-04T08:32:05.475Z,100.00
2022-09-04T08:35:21.243Z,100.00
2022-09-04T08:38:50.422Z,100.00
2022-09-04T08:42:45.482Z,98.80
2022-09-04T08:46:19.402Z,100.00
2022-09-04T08:50:11.399Z,94.84
2022-09-04T08:53:46.179Z,99.10
2022-09-04T08:57:18.587Z,100.00
2022-09-04T09:00:22.977Z,96.24
2022-09-04T09:04:08.698Z,92.90
2022-09-04T09:07:42.520Z,90.74
2022-09-04T09:11:32.414Z,98.22
2022-09-04T09:15:49.667Z,91.57
2022-09-04T09:19:22.734Z,86.19
2022-09-04T09:23:18.409Z,88.33
2022-09-04T09:26:29.204Z,86.04
2022-09-04T09:30:03.338Z,79.71
2022-09-04T09:34:02.316Z,84.71
2022-09-04T09:37:59.108Z,80.36
2022-09-04T09:41:47.962Z,79.97
2022-09-04T09:45:26.023Z,84.26
2022-09-04T09:49:14.813Z,72.55
2022-09-04T09:52:59.595Z,74.42
2022-09-04T09:56:32.061Z,73.08
2022-09-04T10:00:06.845Z,72.59
2022-09-04T10:04:11.947Z,73.65
2022-09-04T10:07:58.835Z,63.80
2022-09-04T10:11:44.240Z,63.12
2022-09-04T10:15:33.411Z,70.42
2022-09-04T10:19:18.661Z,58.12
2022-09-04T10:23:00.575Z,61.26
2022-09-04T10:26:57.614Z,60.37
2022-09-04T10:30:07.765Z,59.12
2022-09-04T10:33:33.871Z,57.15
2022-09-04T10:36:48.573Z,63.42
2022-09-04T10:40:28.222Z,58.35
2022-09-04T10:43:51.835Z,54.25
2022-09-04T10:47:10.620Z,55.47
2022-09-04T10:50:28.618Z,61.68
2022-09-04T10:54:22.440Z,54.14
2022-09-04T10:57:52.165Z,58.17
2022-09-04T11:01:29.684Z,52.24
2022-09-04T11:05:15.640Z,52.26
2022-09-04T11:08:55.955Z,54.72
2022-09-04T11:12:41.018Z,55.72
2022-09-04T11:16:16.354Z,51.18
2022-09-04T11:20:30.481Z,54.53
2022-09-04T11:24:06.065Z,53.52
2022-09-04T11:27:34.119Z,51.28
2022-09-04T11:31:02.075Z,52.95
2022-09-04T11:34:54.089Z,49.67
2022-09-04T11:38:18.390Z,49.69
2022-09-04T11:41:59.386Z,51.57
2022-09-04T11:45:44.547Z,47.82
2022-09-04T11:49:14.521Z,47.42
2022-09-04T11:52:28.515Z,47.24
2022-09-04T11:55:53.316Z,50.33
2022-09-04T11:59:25.439Z,47.07
2022-09-04T12:03:06.503Z,46.47
2022-09-04T12:06:36.426Z,50.94
2022-09-04T12:10:01.031Z,49.38
2022-09-04T12:13:33.637Z,47.52
2022-09-04T12:17:30.022Z,46.46
2022-09-04T12:21:12.245Z,46.55
2022-09-04T12:24:43.470Z,48.90
2022-09-04T12:28:21.036Z,48.08
2022-09-04T12:31:51.318Z,49.51
2022-09-04T12:35:33.696Z,48.44
2022-09-04T12:39:20.440Z,45.86
2022-09-04T12:42:30.023Z,48.37
2022-09-04T12:45:44.692Z,46.76
2022-09-04T12:49:01.175Z,44.15
2022-09-04T12:52:19.176Z,44.77
2022-09-04T12:55:36.057Z,42.02
2022-09-04T12:59:03.231Z,42.81
2022-09-04T13:02:18.693Z,42.93
2022-09-04T13:05:41.945Z,40.91
2022-09-04T13:09:11.310Z,42.39
2022-09-04T13:12:25.539Z,42.67
2022-09-04T13:15:40.728Z,42.81
2022-09-04T13:19:00.155Z,42.72
2022-09-04T13:22:19.932Z,40.47
2022-09-04T13:25:34.327Z,41.35
2022-09-04T13:28:53.555Z,40.05
2022-09-04T13:32:30.459Z,41.74
2022-09-04T13:35:53.573Z,39.35
2022-09-04T13:39:27.090Z,41.21
2022-09-04T13:42:59.487Z,40.10
2022-09-04T13:46:08.058Z,37.17
2022-09-04T13:49:16.467Z,37.74
2022-09-04T13:52:27.302Z,37.62
2022-09-04T13:55:34.884Z,39.33
2022-09-04T13:58:47.656Z,38.71
2022-09-04T14:01:55.167Z,39.11
2022-09-04T14:05:07.364Z,39.00
2022-09-04T14:08:18.112Z,39.77
2022-09-04T14:12:01.335Z,39.46
2022-09-04T14:15:59.869Z,40.42
2022-09-04T14:19:17.325Z,39.30
2022-09-04T14:22:41.315Z,38.83
2022-09-04T14:25:51.083Z,40.34
2022-09-04T14:29:04.132Z,38.91
2022-09-04T14:32:19.420Z,40.63
2022-09-04T14:35:36.554Z,39.55
2022-09-04T14:39:18.834Z,37.29
2022-09-04T14:42:42.621Z,39.58
2022-09-04T14:46:06.594Z,41.87
2022-09-04T14:49:16.991Z,41.08
2022-09-04T14:52:25.345Z,40.78
2022-09-04T14:55:31.329Z,41.54
2022-09-04T14:58:38.341Z,39.76
2022-09-04T15:02:05.569Z,39.06
2022-09-04T15:05:21.859Z,41.77
2022-09-04T15:08:36.783Z,39.29
2022-09-04T15:11:43.653Z,39.31
2022-09-04T15:14:51.245Z,37.52
2022-09-04T15:18:01.776Z,37.89
2022-09-04T15:21:12.322Z,39.02
2022-09-04T15:24:26.770Z,37.43
2022-09-04T15:27:45.221Z,39.63
2022-09-04T15:31:05.632Z,38.95
2022-09-04T15:34:12.551Z,39.18
2022-09-04T15:37:23.656Z,39.75
2022-09-04T15:40:34.439Z,40.74
2022-09-04T15:43:43.842Z,40.00
2022-09-04T15:47:01.086Z,40.93
2022-09-04T15:50:18.191Z,41.76
2022-09-04T15:53:28.607Z,41.76
2022-09-04T15:56:39.174Z,42.53
2022-09-04T15:59:53.182Z,44.00
2022-09-04T16:03:03.182Z,42.78
2022-09-04T16:06:17.264Z,43.44
2022-09-04T16:09:25.990Z,42.76
2022-09-04T16:12:34.482Z,44.02
2022-09-04T16:15:42.667Z,43.37
2022-09-04T16:18:58.933Z,44.51
2022-09-04T16:22:11.559Z,43.59
2022-09-04T16:25:28.943Z,44.92
2022-09-04T16:28:40.985Z,44.43
2022-09-04T16:31:53.878Z,43.56
2022-09-04T16:35:01.734Z,43.79
2022-09-04T16:38:14.790Z,43.81
2022-09-04T16:41:25.590Z,45.88
2022-09-04T16:44:37.019Z,45.53
2022-09-04T16:47:47.312Z,46.02
2022-09-04T16:50:55.814Z,47.26
2022-09-04T16:54:08.511Z,46.64
2022-09-04T16:57:17.104Z,48.08
2022-09-04T17:00:22.336Z,48.06
2022-09-04T17:03:29.922Z,50.20
2022-09-04T17:06:42.731Z,48.36
2022-09-04T17:10:01.677Z,48.40
2022-09-04T17:13:13.081Z,51.72
2022-09-04T17:16:21.708Z,48.47
2022-09-04T17:19:25.962Z,48.49
2022-09-04T17:28:58.037Z,49.53
2022-09-04T17:28:58.371Z,51.10
2022-09-04T17:29:42.900Z,53.09
2022-09-04T17:38:28.373Z,59.32
2022-09-04T17:40:41.350Z,64.79
2022-09-04T17:40:55.440Z,58.14
2022-09-04T17:43:35.800Z,62.80
2022-09-04T17:46:44.695Z,61.26
2022-09-04T17:49:52.144Z,61.44
2022-09-04T17:52:59.963Z,62.15
2022-09-04T17:56:09.316Z,62.52
2022-09-04T17:59:19.415Z,67.89
2022-09-04T18:02:30.402Z,72.07
2022-09-04T18:05:51.591Z,67.50
2022-09-04T18:09:07.766Z,71.84
2022-09-04T18:12:21.362Z,69.29
2022-09-04T18:15:34.798Z,68.09
2022-09-04T18:18:41.748Z,75.08
2022-09-04T18:22:15.764Z,70.25
2022-09-04T18:25:17.893Z,77.28
2022-09-04T18:28:28.051Z,77.71
2022-09-04T18:37:09.139Z,75.85
2022-09-04T18:37:19.202Z,80.12
2022-09-04T18:38:41.793Z,77.94
2022-09-04T18:47:58.126Z,81.91
2022-09-04T18:50:38.515Z,80.09
2022-09-04T18:50:53.392Z,76.84
2022-09-04T18:52:55.352Z,80.46
2022-09-04T18:56:03.743Z,79.18
2022-09-04T18:59:25.618Z,77.60
2022-09-04T19:02:31.520Z,77.64
2022-09-04T19:05:44.767Z,76.81
2022-09-04T19:08:52.747Z,83.02
2022-09-04T19:12:03.948Z,81.72
2022-09-04T19:15:36.632Z,82.62
2022-09-04T19:18:50.014Z,81.86
2022-09-04T19:21:58.726Z,80.26
2022-09-04T19:25:07.504Z,80.46
2022-09-04T19:28:16.408Z,82.54
2022-09-04T19:31:29.956Z,85.68
2022-09-04T19:34:41.303Z,83.79
2022-09-04T19:40:27.411Z,85.27
2022-09-04T19:46:07.830Z,82.39
2022-09-04T19:46:13.769Z,87.66
2022-09-04T19:48:32.113Z,88.42
2022-09-04T19:53:19.591Z,87.76
2022-09-04T19:55:24.671Z,90.02
2022-09-04T19:58:38.822Z,88.52
2022-09-04T20:01:49.585Z,89.49
2022-09-04T20:04:56.959Z,91.40
2022-09-04T20:08:08.494Z,90.73
2022-09-04T20:11:35.326Z,93.34
2022-09-04T20:14:45.171Z,90.65
2022-09-04T20:18:04.505Z,92.83
2022-09-04T20:21:15.539Z,92.39
2022-09-04T20:24:23.016Z,94.77
2022-09-04T20:27:34.020Z,94.60
2022-09-04T20:30:43.857Z,97.06
2022-09-04T20:33:51.795Z,95.31
2022-09-04T20:37:15.860Z,95.54
2022-09-04T20:40:27.457Z,97.65
2022-09-04T20:43:45.679Z,95.65
2022-09-04T20:52:40.654Z,100.00
2022-09-04T20:52:53.683Z,100.00
2022-09-04T20:54:14.991Z,100.00
2022-09-04T21:03:14.935Z,100.00
2022-09-04T21:03:24.231Z,99.96
2022-09-04T21:04:43.409Z,100.00
2022-09-04T21:07:56.073Z,100.00
2022-09-04T21:11:03.341Z,100.00
2022-09-04T21:14:28.587Z,100.00
2022-09-04T21:18:21.199Z,100.00
2022-09-04T21:21:46.257Z,100.00
2022-09-04T21:25:18.838Z,100.00
2022-09-04T21:28:50.811Z,100.00
2022-09-04T21:32:29.397Z,100.00
2022-09-04T21:35:36.919Z,100.00
2022-09-04T21:39:28.137Z,100.00
2022-09-04T21:43:05.387Z,100.00
2022-09-04T21:46:31.066Z,100.00
2022-09-04T21:50:39.153Z,100.00
2022-09-04T21:54:04.657Z,100.00
2022-09-04T22:02:28.297Z,100.00
2022-09-04T22:02:40.790Z,100.00
2022-09-04T22:05:09.664Z,100.00
2022-09-04T22:12:44.093Z,100.00
2022-09-04T22:13:41.680Z,100.00
2022-09-04T22:15:39.075Z,100.00
2022-09-04T22:19:02.124Z,100.00
2022-09-04T22:22:54.604Z,100.00
2022-09-04T22:26:23.797Z,100.00
2022-09-04T22:29:49.925Z,100.00
2022-09-04T22:34:14.306Z,100.00
2022-09-04T22:37:49.150Z,100.00
2022-09-04T22:41:08.732Z,100.00
2022-09-04T22:44:29.436Z,100.00
2022-09-04T22:47:49.963Z,100.00
2022-09-04T22:51:08.140Z,100.00
2022-09-04T22:54:30.730Z,100.00
2022-09-04T22:57:52.398Z,100.00
2022-09-04T23:01:17.322Z,100.00
2022-09-04T23:04:58.165Z,100.00
2022-09-04T23:13:44.079Z,100.00
2022-09-04T23:13:56.229Z,100.00
2022-09-04T23:15:45.206Z,100.00
2022-09-04T23:26:33.725Z,100.00
2022-09-04T23:26:38.817Z,100.00
2022-09-04T23:27:00.865Z,100.00
2022-09-04T23:30:26.635Z,100.00
2022-09-04T23:33:53.910Z,100.00
2022-09-04T23:37:24.755Z,100.00
2022-09-04T23:40:37.214Z,100.00
2022-09-04T23:44:16.645Z,100.00
2022-09-04T23:47:59.142Z,100.00
2022-09-04T23:51:11.287Z,100.00
2022-09-04T23:54:56.766Z,100.00
2022-09-04T23:58:29.115Z,100.00
